Time;durP1;ratioP1;P1;durP2;ratioP2;P2;SDS_P1;SDS_P2;PMS_P1;PMS_P2;Temp;Humidity;BMP_temperature;BMP_pressure;BME280_temperature;BME280_humidity;BME280_pressure;Samples;Min_cycle;Max_cycle;Signal;HPM_P1;HPM_P2
2021/11/07 00:07:35;;;;;;;;;;;;;;;3.92;100.00;100155.80;1673432;85;20502;-73
2021/11/07 00:11:44;;;;;;;;;;;;;;;3.92;100.00;100143.84;1639536;86;20143;-74
2021/11/07 00:14:13;;;;;;;;;;;;;;;3.93;100.00;100145.98;1612324;89;20135;-73
2021/11/07 00:16:40;;;;;;;;;;;;;;;3.90;100.00;100141.07;1610355;89;20179;-74
2021/11/07 00:19:11;;;;;;;;;;;;;;;3.87;100.00;100147.56;1640606;86;20132;-75
2021/11/07 00:22:36;;;;;;;;;;;;;;;3.86;100.00;100144.61;1674618;84;21783;-74
2021/11/07 00:24:15;;;;;;;;;;;;;;;3.89;100.00;100144.21;1653716;85;20149;-73
2021/11/07 00:26:53;;;;;;;;;;;;;;;3.89;100.00;100137.57;1671426;85;20370;-72
2021/11/07 00:29:22;;;;;;;;;;;;;;;3.85;100.00;100141.66;1672205;84;20165;-73
2021/11/07 00:31:53;;;;;;;;;;;;;;;3.74;100.00;100136.36;1671613;84;20213;-73
2021/11/07 00:34:41;;;;;;;;;;;;;;;3.70;100.00;100135.61;1670491;85;21134;-75
2021/11/07 00:36:58;;;;;;;;;;;;;;;3.60;100.00;100132.82;1663188;85;20141;-73
2021/11/07 00:41:58;;;;;;;;;;;;;;;3.51;100.00;100120.70;1623647;85;20121;-73
2021/11/07 00:44:30;;;;;;;;;;;;;;;3.50;100.00;100128.33;1644986;85;20133;-74
2021/11/07 00:46:53;;;;;;;;;;;;;;;3.50;100.00;100123.53;1672367;85;21190;-74
2021/11/07 00:49:23;;;;;;;;;;;;;;;3.46;100.00;100112.50;1672034;83;20156;-73
2021/11/07 00:57:20;;;;;;;;;;;;;;;3.30;100.00;100106.96;1612381;87;20155;-74
2021/11/07 00:59:57;;;;;;;;;;;;;;;3.18;100.00;100104.00;1632208;87;21801;-76
2021/11/07 01:02:21;;;;;;;;;;;;;;;3.05;100.00;100108.40;1638200;87;20104;-73
2021/11/07 01:04:50;;;;;;;;;;;;;;;3.02;100.00;100104.30;1637432;87;20195;-73
2021/11/07 01:07:20;;;;;;;;;;;;;;;2.91;100.00;100092.36;1638693;87;20593;-73
2021/11/07 01:09:46;;;;;;;;;;;;;;;2.84;100.00;100082.70;1668779;85;20443;-75
2021/11/07 01:12:13;;;;;;;;;;;;;;;2.77;100.00;100087.45;1670579;85;21510;-73
2021/11/07 01:14:39;;;;;;;;;;;;;;;2.69;100.00;100092.86;1672325;85;20104;-75
2021/11/07 01:17:06;;;;;;;;;;;;;;;2.67;100.00;100082.13;1672179;85;20146;-70
2021/11/07 01:19:33;;;;;;;;;;;;;;;2.67;100.00;100087.44;1662512;85;20192;-73
2021/11/07 01:22:03;;;;;;;;;;;;;;;2.66;100.00;100079.99;1661955;86;20178;-75
2021/11/07 01:24:38;;;;;;;;;;;;;;;2.64;100.00;100075.89;1661966;86;21852;-74
2021/11/07 01:29:42;;;;;;;;;;;;;;;2.55;100.00;100076.54;1661746;86;20483;-74
2021/11/07 01:32:07;;;;;;;;;;;;;;;2.44;100.00;100070.40;1661454;86;20094;-75
2021/11/07 01:37:15;;;;;;;;;;;;;;;2.35;100.00;100070.52;1662005;86;21225;-75
2021/11/07 01:39:50;;;;;;;;;;;;;;;2.38;100.00;100071.13;1661533;86;20169;-73
2021/11/07 01:42:17;;;;;;;;;;;;;;;2.34;100.00;100069.38;1660275;86;20153;-74
2021/11/07 01:44:45;;;;;;;;;;;;;;;2.36;100.00;100076.64;1661316;86;20237;-75
2021/11/07 01:47:12;;;;;;;;;;;;;;;2.34;100.00;100074.16;1658755;86;20150;-74
2021/11/07 01:49:42;;;;;;;;;;;;;;;2.31;100.00;100077.20;1662755;86;21215;-74
2021/11/07 01:52:10;;;;;;;;;;;;;;;2.31;100.00;100070.57;1662634;86;20513;-74
2021/11/07 01:54:52;;;;;;;;;;;;;;;2.29;100.00;100067.80;1661767;86;20471;-74
2021/11/07 01:57:22;;;;;;;;;;;;;;;2.28;100.00;100063.48;1659989;86;20769;-72
2021/11/07 01:59:51;;;;;;;;;;;;;;;2.27;100.00;100057.37;1662890;86;20146;-73
2021/11/07 02:02:18;;;;;;;;;;;;;;;2.26;100.00;100055.75;1639620;86;21174;-73
2021/11/07 02:04:45;;;;;;;;;;;;;;;2.18;100.00;100060.32;1662729;86;20424;-74
2021/11/07 02:07:12;;;;;;;;;;;;;;;2.12;100.00;100057.41;1662787;86;20166;-73
2021/11/07 02:09:39;;;;;;;;;;;;;;;2.11;100.00;100058.44;1660630;86;20196;-72
2021/11/07 02:12:07;;;;;;;;;;;;;;;2.12;100.00;100065.87;1662473;86;20082;-73
2021/11/07 02:14:33;;;;;;;;;;;;;;;2.08;100.00;100064.11;1662873;86;20795;-72
2021/11/07 02:17:00;;;;;;;;;;;;;;;2.04;100.00;100066.80;1662026;86;20447;-72
2021/11/07 02:19:28;;;;;;;;;;;;;;;1.95;100.00;100060.47;1662049;86;20142;-74
2021/11/07 02:21:55;;;;;;;;;;;;;;;1.89;100.00;100057.56;1662385;86;20196;-72
2021/11/07 02:24:22;;;;;;;;;;;;;;;1.87;100.00;100064.86;1662150;86;20435;-71
2021/11/07 02:26:53;;;;;;;;;;;;;;;1.85;100.00;100066.87;1656652;86;22100;-75
2021/11/07 02:29:21;;;;;;;;;;;;;;;1.77;100.00;100057.71;1661748;86;20443;-71
2021/11/07 02:31:49;;;;;;;;;;;;;;;1.76;100.00;100057.37;1631079;88;20463;-74
2021/11/07 02:34:16;;;;;;;;;;;;;;;1.78;100.00;100058.52;1597238;88;20373;-74
2021/11/07 02:36:44;;;;;;;;;;;;;;;1.73;100.00;100062.23;1611452;89;20173;-75
2021/11/07 02:39:13;;;;;;;;;;;;;;;1.70;100.00;100058.13;1611649;89;21207;-72
2021/11/07 02:41:40;;;;;;;;;;;;;;;1.62;100.00;100047.14;1611038;89;20220;-73
2021/11/07 02:44:11;;;;;;;;;;;;;;;1.60;100.00;100045.17;1611393;89;20102;-74
2021/11/07 02:46:37;;;;;;;;;;;;;;;1.61;100.00;100056.06;1612598;89;20159;-74
2021/11/07 02:49:05;;;;;;;;;;;;;;;1.62;100.00;100050.29;1661444;86;20202;-73
2021/11/07 02:51:34;;;;;;;;;;;;;;;1.66;100.00;100047.06;1662335;86;21127;-73
2021/11/07 02:54:07;;;;;;;;;;;;;;;1.66;100.00;100053.69;1662004;86;20093;-73
2021/11/07 02:56:35;;;;;;;;;;;;;;;1.66;100.00;100055.52;1661704;86;20758;-73
2021/11/07 02:59:03;;;;;;;;;;;;;;;1.65;100.00;100052.05;1662667;86;20990;-75
2021/11/07 03:01:31;;;;;;;;;;;;;;;1.54;100.00;100044.56;1662188;86;20206;-72
2021/11/07 03:04:02;;;;;;;;;;;;;;;1.42;100.00;100055.28;1662017;86;21088;-73
2021/11/07 03:06:31;;;;;;;;;;;;;;;1.33;100.00;100057.20;1661651;86;20093;-74
2021/11/07 03:08:58;;;;;;;;;;;;;;;1.23;100.00;100053.50;1662329;86;20105;-72
2021/11/07 03:11:24;;;;;;;;;;;;;;;1.17;100.00;100052.89;1662356;86;20185;-75
2021/11/07 03:13:53;;;;;;;;;;;;;;;1.14;100.00;100044.00;1662572;86;20180;-76
2021/11/07 03:16:20;;;;;;;;;;;;;;;1.16;100.00;100043.83;1662411;86;21837;-72
2021/11/07 03:18:46;;;;;;;;;;;;;;;1.11;100.00;100041.72;1665790;85;20118;-75
2021/11/07 03:21:15;;;;;;;;;;;;;;;1.11;100.00;100032.98;1672335;85;20077;-76
2021/11/07 03:23:50;;;;;;;;;;;;;;;1.13;100.00;100026.98;1672559;85;20210;-75
2021/11/07 03:26:14;;;;;;;;;;;;;;;1.10;100.00;100029.99;1671306;85;20706;-75
2021/11/07 03:28:43;;;;;;;;;;;;;;;1.09;100.00;100027.05;1654593;86;21174;-75
2021/11/07 03:31:22;;;;;;;;;;;;;;;1.09;100.00;100029.18;1647440;86;20090;-76
2021/11/07 03:33:48;;;;;;;;;;;;;;;1.06;100.00;100032.19;1612365;88;20154;-76
2021/11/07 03:36:17;;;;;;;;;;;;;;;1.02;100.00;100033.55;1638126;87;20143;-73
2021/11/07 03:38:43;;;;;;;;;;;;;;;0.97;100.00;100026.15;1637999;86;20195;-74
2021/11/07 03:41:10;;;;;;;;;;;;;;;0.94;100.00;100018.59;1633998;87;21159;-75
2021/11/07 03:43:37;;;;;;;;;;;;;;;0.93;100.00;100016.95;1637895;87;20108;-76
2021/11/07 03:46:04;;;;;;;;;;;;;;;0.91;100.00;100009.70;1637109;87;20123;-74
2021/11/07 03:48:31;;;;;;;;;;;;;;;0.94;100.00;100014.62;1637932;87;20128;-73
2021/11/07 03:51:01;;;;;;;;;;;;;;;0.92;100.00;100019.77;1656137;86;20399;-75
2021/11/07 03:53:28;;;;;;;;;;;;;;;0.90;100.00;100015.16;1612703;89;22001;-74
2021/11/07 03:55:55;;;;;;;;;;;;;;;0.89;100.00;100013.02;1636845;87;20139;-76
2021/11/07 03:58:22;;;;;;;;;;;;;;;0.82;100.00;100009.45;1637378;87;20120;-74
2021/11/07 04:00:50;;;;;;;;;;;;;;;0.80;100.00;100003.01;1637302;87;20152;-74
2021/11/07 04:03:18;;;;;;;;;;;;;;;0.79;100.00;100000.56;1636915;87;20104;-74
2021/11/07 04:05:45;;;;;;;;;;;;;;;0.75;100.00;100001.91;1638542;87;21196;-74
2021/11/07 04:08:13;;;;;;;;;;;;;;;0.75;100.00;100002.72;1636742;87;20438;-73
2021/11/07 04:10:40;;;;;;;;;;;;;;;0.74;100.00;100007.70;1636875;87;20112;-74
2021/11/07 04:13:07;;;;;;;;;;;;;;;0.74;100.00;100005.56;1637139;87;20128;-73
2021/11/07 04:15:36;;;;;;;;;;;;;;;0.73;100.00;100005.22;1636752;87;20231;-75
2021/11/07 04:18:06;;;;;;;;;;;;;;;0.76;100.00;100011.47;1636921;87;21191;-73
2021/11/07 04:20:33;;;;;;;;;;;;;;;0.76;100.00;100008.83;1633488;87;20420;-73
2021/11/07 04:23:01;;;;;;;;;;;;;;;0.73;100.00;100014.47;1656549;86;20226;-74
2021/11/07 04:25:28;;;;;;;;;;;;;;;0.64;100.00;100013.23;1612819;87;20427;-74
2021/11/07 04:27:54;;;;;;;;;;;;;;;0.62;100.00;100013.91;1640293;87;20171;-76
2021/11/07 04:30:21;;;;;;;;;;;;;;;0.58;100.00;100012.61;1639304;87;22024;-75
2021/11/07 04:32:51;;;;;;;;;;;;;;;0.51;100.00;100012.98;1671811;85;20085;-74
2021/11/07 04:35:17;;;;;;;;;;;;;;;0.51;100.00;100016.14;1639834;87;20096;-75
2021/11/07 04:37:44;;;;;;;;;;;;;;;0.51;100.00;100022.74;1639488;86;20633;-74
2021/11/07 04:40:13;;;;;;;;;;;;;;;0.52;100.00;100028.36;1607761;89;20217;-75
2021/11/07 04:42:41;;;;;;;;;;;;;;;0.53;100.00;100029.99;1641203;87;21135;-75
2021/11/07 04:45:07;;;;;;;;;;;;;;;0.49;100.00;100036.14;1671670;84;20101;-74
2021/11/07 04:47:34;;;;;;;;;;;;;;;0.46;100.00;100028.55;1672821;85;20241;-74
2021/11/07 04:50:01;;;;;;;;;;;;;;;0.44;100.00;100023.94;1673073;85;20503;-75
2021/11/07 04:52:27;;;;;;;;;;;;;;;0.47;100.00;100026.25;1673122;85;20663;-73
2021/11/07 04:54:54;;;;;;;;;;;;;;;0.50;100.00;100027.20;1672383;85;20609;-73
2021/11/07 04:57:21;;;;;;;;;;;;;;;0.48;100.00;100014.67;1672188;85;20162;-72
2021/11/07 04:59:47;;;;;;;;;;;;;;;0.50;100.00;100021.11;1639831;86;20107;-75
2021/11/07 05:02:13;;;;;;;;;;;;;;;0.48;100.00;100020.46;1611986;89;20616;-75
2021/11/07 05:04:41;;;;;;;;;;;;;;;0.51;100.00;100020.91;1637154;87;20663;-75
2021/11/07 05:07:07;;;;;;;;;;;;;;;0.52;100.00;100012.01;1656737;86;21133;-77
2021/11/07 05:09:34;;;;;;;;;;;;;;;0.53;100.00;100005.72;1634132;87;20191;-77
2021/11/07 05:12:04;;;;;;;;;;;;;;;0.51;100.00;100003.75;1655606;86;20169;-75
2021/11/07 05:14:31;;;;;;;;;;;;;;;0.49;100.00;100003.59;1634328;87;20417;-75
2021/11/07 05:16:57;;;;;;;;;;;;;;;0.49;100.00;100013.69;1656093;86;20102;-76
2021/11/07 05:19:24;;;;;;;;;;;;;;;0.49;100.00;100015.02;1611922;87;21231;-75
2021/11/07 05:21:52;;;;;;;;;;;;;;;0.51;100.00;100014.81;1639719;86;20114;-76
2021/11/07 05:24:20;;;;;;;;;;;;;;;0.49;100.00;100008.41;1639680;86;20132;-73
2021/11/07 05:26:47;;;;;;;;;;;;;;;0.47;100.00;100009.59;1608664;88;20185;-73
2021/11/07 05:29:14;;;;;;;;;;;;;;;0.52;100.00;100003.27;1608285;87;20182;-72
2021/11/07 05:31:42;;;;;;;;;;;;;;;0.56;100.00;100001.89;1638880;87;21171;-73
2021/11/07 05:34:09;;;;;;;;;;;;;;;0.67;100.00;99995.39;1639212;87;20092;-75
2021/11/07 05:36:40;;;;;;;;;;;;;;;0.81;100.00;99997.25;1638833;87;20147;-74
2021/11/07 05:39:04;;;;;;;;;;;;;;;0.94;100.00;100001.91;1636615;87;20194;-75
2021/11/07 05:41:31;;;;;;;;;;;;;;;1.04;100.00;99999.82;1655969;86;20122;-73
2021/11/07 05:43:58;;;;;;;;;;;;;;;1.16;100.00;99990.95;1634234;87;21650;-76
2021/11/07 05:46:25;;;;;;;;;;;;;;;1.31;100.00;99986.98;1656006;86;20597;-75
2021/11/07 05:48:53;;;;;;;;;;;;;;;1.43;100.00;99993.45;1639434;86;20169;-73
2021/11/07 05:51:19;;;;;;;;;;;;;;;1.55;100.00;99996.46;1666049;86;20688;-77
2021/11/07 05:53:46;;;;;;;;;;;;;;;1.69;100.00;100000.89;1665000;86;20184;-72
2021/11/07 05:56:14;;;;;;;;;;;;;;;1.84;100.00;99999.56;1666260;85;21589;-74
2021/11/07 05:58:40;;;;;;;;;;;;;;;1.92;100.00;100000.27;1665954;85;20081;-74
2021/11/07 06:01:09;;;;;;;;;;;;;;;2.05;100.00;99999.58;1661647;85;20164;-77
2021/11/07 06:03:35;;;;;;;;;;;;;;;2.23;100.00;99995.20;1664616;85;20168;-76
2021/11/07 06:06:03;;;;;;;;;;;;;;;2.39;100.00;100004.72;1662694;84;20148;-76
2021/11/07 06:08:30;;;;;;;;;;;;;;;2.62;100.00;100014.30;1664599;85;21245;-73
2021/11/07 06:10:58;;;;;;;;;;;;;;;2.76;100.00;100006.78;1665154;86;20160;-75
2021/11/07 06:13:25;;;;;;;;;;;;;;;2.78;100.00;100004.25;1666285;86;20204;-75
2021/11/07 06:15:51;;;;;;;;;;;;;;;2.85;100.00;99995.55;1671583;85;20111;-73
2021/11/07 06:18:19;;;;;;;;;;;;;;;2.88;100.00;100001.78;1665521;85;20233;-73
2021/11/07 06:20:45;;;;;;;;;;;;;;;2.99;100.00;100002.08;1663457;86;21176;-74
2021/11/07 06:23:11;;;;;;;;;;;;;;;3.16;100.00;100009.23;1662282;86;20165;-73
2021/11/07 06:25:39;;;;;;;;;;;;;;;3.28;100.00;100003.37;1662906;86;20142;-74
2021/11/07 06:28:08;;;;;;;;;;;;;;;3.38;100.00;100006.00;1663111;86;20468;-73
2021/11/07 06:30:34;;;;;;;;;;;;;;;3.43;100.00;100006.74;1663195;85;20471;-74
2021/11/07 06:33:01;;;;;;;;;;;;;;;3.50;100.00;100006.76;1663087;86;21551;-74
2021/11/07 06:35:30;;;;;;;;;;;;;;;3.65;100.00;100010.94;1662226;85;20455;-74
2021/11/07 06:37:57;;;;;;;;;;;;;;;3.72;100.00;100001.65;1662869;85;20104;-73
2021/11/07 06:40:24;;;;;;;;;;;;;;;3.90;100.00;100006.44;1661499;86;20157;-73
2021/11/07 06:42:51;;;;;;;;;;;;;;;4.10;100.00;100001.18;1663399;86;20233;-75
2021/11/07 06:45:19;;;;;;;;;;;;;;;4.30;100.00;99999.89;1662276;86;21157;-74
2021/11/07 06:47:46;;;;;;;;;;;;;;;4.26;100.00;99999.49;1654922;86;20435;-77
2021/11/07 06:50:13;;;;;;;;;;;;;;;4.29;100.00;99995.61;1662430;86;20102;-74
2021/11/07 06:52:41;;;;;;;;;;;;;;;4.51;100.00;99986.44;1662667;85;20463;-75
2021/11/07 06:55:11;;;;;;;;;;;;;;;4.60;100.00;99983.05;1662372;86;20161;-77
2021/11/07 06:57:38;;;;;;;;;;;;;;;4.82;100.00;99988.17;1662395;86;21828;-73
2021/11/07 07:00:09;;;;;;;;;;;;;;;5.00;100.00;99987.05;1661363;86;20109;-73
2021/11/07 07:02:39;;;;;;;;;;;;;;;5.11;100.00;99994.37;1663202;85;20431;-72
2021/11/07 07:05:07;;;;;;;;;;;;;;;5.48;100.00;99983.24;1663309;86;20510;-72
2021/11/07 07:07:38;;;;;;;;;;;;;;;5.53;100.00;99980.25;1662559;86;20180;-73
2021/11/07 07:10:07;;;;;;;;;;;;;;;5.65;100.00;99984.93;1664975;85;21225;-72
2021/11/07 07:12:44;;;;;;;;;;;;;;;5.61;100.00;99972.56;1663037;85;20094;-73
2021/11/07 07:15:53;;;;;;;;;;;;;;;5.64;100.00;99977.46;1661732;86;20213;-75
2021/11/07 07:20:27;;;;;;;;;;;;;;;6.12;100.00;99973.03;1660812;85;20502;-74
2021/11/07 07:28:10;;;;;;;;;;;;;;;6.53;100.00;99975.75;1665367;84;20192;-76
2021/11/07 07:30:42;;;;;;;;;;;;;;;6.46;100.00;99972.31;1662452;86;20184;-74
2021/11/07 07:33:27;;;;;;;;;;;;;;;6.50;100.00;99972.19;1665313;85;20172;-73
2021/11/07 07:35:45;;;;;;;;;;;;;;;6.44;100.00;99965.04;1663905;86;21564;-75
2021/11/07 07:38:11;;;;;;;;;;;;;;;6.74;100.00;99961.75;1644381;86;20090;-71
2021/11/07 07:40:39;;;;;;;;;;;;;;;6.77;100.00;99961.31;1665464;86;20149;-74
2021/11/07 07:43:07;;;;;;;;;;;;;;;6.83;100.00;99963.90;1664957;86;20150;-72
2021/11/07 07:45:36;;;;;;;;;;;;;;;7.11;100.00;99960.48;1665173;85;20097;-73
2021/11/07 07:48:07;;;;;;;;;;;;;;;7.28;100.00;99952.19;1664658;85;21478;-76
2021/11/07 07:50:37;;;;;;;;;;;;;;;6.96;100.00;99964.84;1657615;86;20180;-77
2021/11/07 07:53:03;;;;;;;;;;;;;;;6.79;100.00;99954.72;1660394;85;20090;-75
2021/11/07 07:55:42;;;;;;;;;;;;;;;6.95;100.00;99947.17;1630678;86;20155;-74
2021/11/07 07:58:14;;;;;;;;;;;;;;;7.18;100.00;99938.52;1663803;86;20241;-76
2021/11/07 08:00:41;;;;;;;;;;;;;;;7.64;100.00;99938.00;1664889;86;21180;-73
2021/11/07 08:03:08;;;;;;;;;;;;;;;7.80;100.00;99940.56;1664879;86;20174;-75
2021/11/07 08:05:35;;;;;;;;;;;;;;;7.31;100.00;99935.72;1654615;86;20504;-75
2021/11/07 08:08:04;;;;;;;;;;;;;;;6.94;100.00;99924.21;1636514;87;20166;-72
2021/11/07 08:10:31;;;;;;;;;;;;;;;6.74;100.00;99925.73;1659721;86;20145;-74
2021/11/07 08:13:00;;;;;;;;;;;;;;;6.79;100.00;99927.23;1665117;85;21242;-76
2021/11/07 08:15:26;;;;;;;;;;;;;;;6.80;100.00;99920.31;1665061;85;20106;-73
2021/11/07 08:17:53;;;;;;;;;;;;;;;6.82;100.00;99916.11;1664785;85;20150;-70
2021/11/07 08:20:20;;;;;;;;;;;;;;;6.96;100.00;99898.12;1661845;85;20150;-70
2021/11/07 08:22:51;;;;;;;;;;;;;;;7.34;100.00;99911.23;1662817;86;20138;-76
2021/11/07 08:25:22;;;;;;;;;;;;;;;7.77;100.00;99897.45;1664964;86;21175;-76
2021/11/07 08:27:55;;;;;;;;;;;;;;;7.73;100.00;99895.21;1664124;86;20125;-74
2021/11/07 08:30:23;;;;;;;;;;;;;;;7.80;100.00;99875.09;1646824;86;20517;-76
2021/11/07 08:32:52;;;;;;;;;;;;;;;7.61;100.00;99879.66;1656095;85;20409;-74
2021/11/07 08:35:19;;;;;;;;;;;;;;;7.38;100.00;99872.89;1641824;86;20248;-74
2021/11/07 08:37:52;;;;;;;;;;;;;;;7.37;100.00;99873.38;1623743;88;21136;-75
2021/11/07 08:40:23;;;;;;;;;;;;;;;7.27;100.00;99876.59;1629821;87;20127;-73
2021/11/07 08:43:00;;;;;;;;;;;;;;;7.22;100.00;99869.77;1613186;87;20157;-74
2021/11/07 09:02:12;;;;;;;;;;;;;;;8.14;100.00;99853.49;1659124;85;20198;-74
2021/11/07 09:05:17;;;;;;;;;;;;;;;8.44;100.00;99843.78;1659359;85;21900;-74
2021/11/07 09:07:13;;;;;;;;;;;;;;;8.65;100.00;99847.22;1632979;85;20197;-73
2021/11/07 09:09:32;;;;;;;;;;;;;;;8.48;100.00;99847.63;1656775;86;20097;-74
2021/11/07 09:12:01;;;;;;;;;;;;;;;8.48;100.00;99845.77;1663848;85;20148;-73
2021/11/07 09:14:34;;;;;;;;;;;;;;;8.20;100.00;99850.41;1663341;85;20110;-74
2021/11/07 09:17:12;;;;;;;;;;;;;;;8.51;100.00;99837.80;1665008;85;21228;-73
2021/11/07 09:19:40;;;;;;;;;;;;;;;8.75;100.00;99842.62;1664175;85;20141;-76
2021/11/07 09:22:15;;;;;;;;;;;;;;;9.04;100.00;99841.33;1663849;85;20736;-75
2021/11/07 09:24:51;;;;;;;;;;;;;;;8.90;100.00;99828.74;1665070;85;20158;-75
2021/11/07 09:28:00;;;;;;;;;;;;;;;9.35;100.00;99830.70;1655850;85;20216;-74
2021/11/07 09:32:36;;;;;;;;;;;;;;;9.59;99.40;99825.53;1664074;86;20185;-74
2021/11/07 09:35:45;;;;;;;;;;;;;;;9.59;100.00;99838.93;1663000;85;20427;-75
2021/11/07 09:40:10;;;;;;;;;;;;;;;9.69;98.30;99807.48;1583116;89;20204;-74
2021/11/07 09:42:53;;;;;;;;;;;;;;;9.62;98.64;99825.58;1585616;90;21990;-73
2021/11/07 09:45:14;;;;;;;;;;;;;;;9.86;96.85;99805.63;1585726;89;20464;-75
2021/11/07 09:47:40;;;;;;;;;;;;;;;9.99;93.82;99803.14;1590103;89;20139;-72
2021/11/07 09:50:07;;;;;;;;;;;;;;;10.07;94.37;99801.95;1565461;89;20658;-72
2021/11/07 09:52:39;;;;;;;;;;;;;;;10.32;91.60;99796.72;1586040;90;20222;-73
2021/11/07 09:55:05;;;;;;;;;;;;;;;10.40;90.69;99790.93;1584862;90;21238;-72
2021/11/07 09:57:32;;;;;;;;;;;;;;;10.32;86.64;99790.02;1578790;89;20998;-73
2021/11/07 10:00:01;;;;;;;;;;;;;;;10.41;85.58;99791.20;1559143;91;20251;-73
2021/11/07 10:02:32;;;;;;;;;;;;;;;10.32;84.58;99791.36;1580957;89;20173;-71
2021/11/07 10:05:01;;;;;;;;;;;;;;;10.13;84.55;99782.72;1584707;89;20144;-74
2021/11/07 10:07:38;;;;;;;;;;;;;;;9.97;84.77;99775.79;1586275;90;21177;-74
2021/11/07 10:10:06;;;;;;;;;;;;;;;10.11;85.13;99784.30;1585355;89;20126;-75
2021/11/07 10:12:52;;;;;;;;;;;;;;;10.29;84.17;99766.64;1566956;90;20240;-73
2021/11/07 10:15:38;;;;;;;;;;;;;;;10.17;82.64;99780.65;1586403;90;20445;-73
2021/11/07 10:18:05;;;;;;;;;;;;;;;10.23;80.87;99778.84;1643898;86;20105;-74
2021/11/07 10:20:37;;;;;;;;;;;;;;;10.48;79.53;99768.52;1665978;86;21176;-74
2021/11/07 10:23:11;;;;;;;;;;;;;;;10.38;80.71;99758.16;1647947;87;20245;-73
2021/11/07 10:25:54;;;;;;;;;;;;;;;10.45;78.98;99750.75;1648415;87;20160;-76
2021/11/07 10:28:29;;;;;;;;;;;;;;;10.53;79.22;99752.19;1648563;87;20848;-75
2021/11/07 10:31:07;;;;;;;;;;;;;;;10.83;76.01;99748.55;1648583;87;20151;-74
2021/11/07 10:33:54;;;;;;;;;;;;;;;10.78;76.73;99767.30;1648744;87;21757;-76
2021/11/07 10:36:43;;;;;;;;;;;;;;;10.61;77.28;99764.66;1645067;87;20140;-74
2021/11/07 10:47:35;;;;;;;;;;;;;;;10.18;78.01;99713.86;1648712;87;21151;-73
2021/11/07 10:52:44;;;;;;;;;;;;;;;9.88;80.52;99722.28;1648829;87;20296;-75
2021/11/07 10:55:22;;;;;;;;;;;;;;;9.87;80.58;99716.11;1648743;87;20125;-73
2021/11/07 10:57:55;;;;;;;;;;;;;;;9.70;81.04;99700.56;1648720;87;20132;-76
2021/11/07 11:00:28;;;;;;;;;;;;;;;9.69;81.82;99702.95;1648122;86;21833;-75
2021/11/07 11:03:03;;;;;;;;;;;;;;;9.93;81.97;99705.46;1648497;87;20108;-76
2021/11/07 11:05:50;;;;;;;;;;;;;;;10.00;81.13;99706.11;1648892;87;20422;-74
2021/11/07 11:08:22;;;;;;;;;;;;;;;10.06;79.43;99698.41;1648806;87;20100;-74
2021/11/07 11:13:48;;;;;;;;;;;;;;;10.07;79.46;99686.63;1648920;87;21195;-71
2021/11/07 11:27:49;;;;;;;;;;;;;;;9.81;76.49;99668.02;1666878;86;21627;-74
2021/11/07 11:29:44;;;;;;;;;;;;;;;9.52;76.70;99657.39;1640586;86;20109;-73
2021/11/07 11:32:04;;;;;;;;;;;;;;;9.51;77.42;99658.99;1662983;86;20109;-76
2021/11/07 11:34:34;;;;;;;;;;;;;;;9.42;77.50;99657.23;1663823;86;20726;-73
2021/11/07 11:37:06;;;;;;;;;;;;;;;9.27;79.26;99656.98;1665154;86;20499;-74
2021/11/07 11:39:31;;;;;;;;;;;;;;;9.21;80.22;99652.05;1664414;86;21181;-74
2021/11/07 11:42:00;;;;;;;;;;;;;;;9.23;81.67;99633.88;1665857;86;20487;-75
2021/11/07 11:44:21;;;;;;;;;;;;;;;9.14;82.12;99617.42;1665141;86;20145;-74
2021/11/07 11:47:09;;;;;;;;;;;;;;;9.09;82.87;99622.70;1666957;86;20090;-75
2021/11/07 11:52:28;;;;;;;;;;;;;;;8.89;82.83;99612.45;1664969;86;21893;-74
2021/11/07 12:03:47;;;;;;;;;;;;;;;8.88;84.92;99609.47;1666965;86;20472;-75
2021/11/07 12:06:12;;;;;;;;;;;;;;;8.80;86.30;99616.56;1660858;86;21929;-73
2021/11/07 12:08:55;;;;;;;;;;;;;;;8.74;86.27;99610.81;1665728;86;20153;-72
2021/11/07 12:11:35;;;;;;;;;;;;;;;8.62;85.88;99612.73;1663427;86;20105;-74
2021/11/07 12:14:12;;;;;;;;;;;;;;;8.60;86.97;99611.66;1666833;86;20147;-74
2021/11/07 12:16:49;;;;;;;;;;;;;;;8.51;86.70;99593.02;1665373;86;20090;-74
2021/11/07 12:19:20;;;;;;;;;;;;;;;8.47;88.54;99585.17;1666778;86;20109;-73
2021/11/07 12:21:55;;;;;;;;;;;;;;;8.43;88.60;99587.53;1666351;86;20158;-75
2021/11/07 12:24:28;;;;;;;;;;;;;;;8.44;89.20;99582.98;1648709;87;20096;-76
2021/11/07 12:27:25;;;;;;;;;;;;;;;8.45;89.87;99554.67;1648600;86;20434;-76
2021/11/07 12:29:56;;;;;;;;;;;;;;;8.43;90.17;99558.61;1648821;87;20095;-76
2021/11/07 12:32:25;;;;;;;;;;;;;;;8.40;91.05;99541.17;1648691;86;21157;-74
2021/11/07 12:35:08;;;;;;;;;;;;;;;8.42;92.31;99554.31;1620747;88;20106;-75
2021/11/07 12:40:38;;;;;;;;;;;;;;;8.35;92.77;99529.02;1640319;87;20195;-75
2021/11/07 12:43:07;;;;;;;;;;;;;;;8.34;93.56;99526.88;1640306;87;20142;-74
2021/11/07 12:45:39;;;;;;;;;;;;;;;8.34;94.46;99524.73;1640212;87;21955;-73
2021/11/07 12:48:08;;;;;;;;;;;;;;;8.32;94.61;99524.96;1632471;87;20521;-73
2021/11/07 12:50:55;;;;;;;;;;;;;;;8.28;95.40;99518.48;1671961;85;20125;-74
2021/11/07 12:53:25;;;;;;;;;;;;;;;8.26;95.73;99514.43;1671190;86;20105;-74
2021/11/07 12:55:51;;;;;;;;;;;;;;;8.22;96.48;99506.06;1671414;86;20404;-74
2021/11/07 12:58:19;;;;;;;;;;;;;;;8.19;97.25;99507.08;1671232;86;21137;-72
2021/11/07 13:00:46;;;;;;;;;;;;;;;8.14;97.17;99496.56;1671214;86;20206;-72
2021/11/07 13:03:16;;;;;;;;;;;;;;;8.12;97.74;99497.32;1671261;86;20121;-74
2021/11/07 13:05:53;;;;;;;;;;;;;;;8.09;97.76;99491.13;1662322;85;20542;-73
2021/11/07 13:08:27;;;;;;;;;;;;;;;8.07;98.24;99471.03;1643630;87;20256;-74
2021/11/07 13:11:03;;;;;;;;;;;;;;;8.03;98.76;99468.01;1643072;87;22000;-71
2021/11/07 13:13:41;;;;;;;;;;;;;;;8.01;99.56;99463.95;1643253;87;20097;-71
2021/11/07 13:32:30;;;;;;;;;;;;;;;7.60;100.00;99456.50;1645937;87;20175;-74
2021/11/07 13:34:53;;;;;;;;;;;;;;;7.56;100.00;99465.49;1645749;87;20135;-72
2021/11/07 13:37:25;;;;;;;;;;;;;;;7.48;100.00;99455.19;1646888;85;21122;-73
2021/11/07 13:39:52;;;;;;;;;;;;;;;7.44;100.00;99460.17;1673218;85;20101;-69
2021/11/07 13:42:19;;;;;;;;;;;;;;;7.37;100.00;99462.16;1663269;85;20166;-73
2021/11/07 13:44:55;;;;;;;;;;;;;;;7.31;100.00;99449.76;1672684;85;20109;-73
2021/11/07 13:47:34;;;;;;;;;;;;;;;7.25;100.00;99458.69;1646181;85;20423;-73
2021/11/07 13:50:04;;;;;;;;;;;;;;;7.22;100.00;99455.16;1666396;85;21184;-73
2021/11/07 13:52:31;;;;;;;;;;;;;;;7.15;100.00;99454.47;1668685;85;20109;-73
2021/11/07 13:55:00;;;;;;;;;;;;;;;7.09;100.00;99453.55;1656373;86;20082;-72
2021/11/07 13:57:27;;;;;;;;;;;;;;;7.03;100.00;99451.80;1612625;89;20082;-72
2021/11/07 13:59:54;;;;;;;;;;;;;;;6.98;100.00;99449.02;1608863;89;20262;-74
2021/11/07 14:02:22;;;;;;;;;;;;;;;6.92;100.00;99452.11;1608885;88;21185;-72
2021/11/07 14:04:52;;;;;;;;;;;;;;;6.86;100.00;99451.19;1609074;88;20114;-73
2021/11/07 14:07:24;;;;;;;;;;;;;;;6.81;100.00;99446.23;1608522;87;20436;-74
2021/11/07 14:09:59;;;;;;;;;;;;;;;6.76;100.00;99447.45;1609006;88;20363;-74
2021/11/07 14:12:46;;;;;;;;;;;;;;;6.69;100.00;99447.58;1609108;88;20154;-74
2021/11/07 14:15:29;;;;;;;;;;;;;;;6.60;100.00;99440.95;1609078;89;21172;-73
2021/11/07 14:18:18;;;;;;;;;;;;;;;6.52;100.00;99443.97;1556669;90;20198;-74
2021/11/07 14:20:48;;;;;;;;;;;;;;;6.50;100.00;99446.05;1553497;91;20158;-73
2021/11/07 14:23:25;;;;;;;;;;;;;;;6.49;100.00;99427.88;1604383;87;20249;-74
2021/11/07 14:25:53;;;;;;;;;;;;;;;6.49;100.00;99429.74;1604316;87;20448;-75
2021/11/07 14:28:27;;;;;;;;;;;;;;;6.48;100.00;99410.27;1607790;89;21172;-73
2021/11/07 14:30:57;;;;;;;;;;;;;;;6.49;100.00;99422.55;1605745;89;20168;-75
2021/11/07 14:33:31;;;;;;;;;;;;;;;6.42;100.00;99425.88;1606549;89;20467;-75
2021/11/07 14:35:57;;;;;;;;;;;;;;;6.32;100.00;99426.93;1607398;88;20644;-75
2021/11/07 14:38:31;;;;;;;;;;;;;;;6.26;100.00;99427.33;1607248;88;20106;-73
2021/11/07 14:41:06;;;;;;;;;;;;;;;6.20;100.00;99415.73;1612187;87;21157;-71
2021/11/07 14:43:55;;;;;;;;;;;;;;;6.16;100.00;99408.42;1622417;86;20574;-73